createdAt,value
2023-12-23T00:00:26.342Z,71.30
2023-12-23T00:03:00.386Z,71.40
2023-12-23T00:05:35.311Z,71.30
2023-12-23T00:08:09.938Z,71.20
2023-12-23T00:10:43.805Z,71.30
2023-12-23T00:13:21.521Z,71.30
2023-12-23T00:15:55.384Z,71.30
2023-12-23T00:18:29.837Z,71.30
2023-12-23T00:21:05.742Z,71.40
2023-12-23T00:23:40.403Z,71.50
2023-12-23T00:26:16.030Z,71.50
2023-12-23T00:28:51.294Z,71.50
2023-12-23T00:31:25.809Z,71.50
2023-12-23T00:34:00.101Z,71.60
2023-12-23T00:36:33.955Z,71.50
2023-12-23T00:39:08.140Z,71.70
2023-12-23T00:41:42.484Z,71.60
2023-12-23T00:44:18.137Z,71.50
2023-12-23T00:46:52.910Z,71.50
2023-12-23T00:49:26.991Z,72.30
2023-12-23T00:52:02.162Z,71.70
2023-12-23T00:54:35.694Z,71.70
2023-12-23T00:57:09.844Z,71.50
2023-12-23T00:59:47.725Z,71.50
2023-12-23T01:02:21.889Z,71.40
2023-12-23T01:04:57.425Z,71.50
2023-12-23T01:07:31.262Z,71.40
2023-12-23T01:10:05.171Z,71.50
2023-12-23T01:12:39.512Z,71.50
2023-12-23T01:15:15.112Z,71.40
2023-12-23T01:17:52.394Z,71.40
2023-12-23T01:20:27.138Z,71.30
2023-12-23T01:23:02.823Z,72.20
2023-12-23T01:25:37.176Z,71.40
2023-12-23T01:28:10.847Z,71.30
2023-12-23T01:30:46.519Z,71.20
2023-12-23T01:33:20.562Z,71.10
2023-12-23T01:35:54.092Z,71.20
2023-12-23T01:38:28.327Z,71.20
2023-12-23T01:41:02.703Z,71.20
2023-12-23T01:43:37.394Z,71.10
2023-12-23T01:46:14.015Z,71.10
2023-12-23T01:48:48.669Z,71.30
2023-12-23T01:51:23.069Z,70.90
2023-12-23T01:54:05.133Z,70.60
2023-12-23T01:56:39.674Z,71.10
2023-12-23T01:59:13.919Z,71.00
2023-12-23T02:01:52.462Z,71.00
2023-12-23T02:04:32.180Z,71.00
2023-12-23T02:07:07.417Z,71.10
2023-12-23T02:09:41.919Z,71.20
2023-12-23T02:12:29.336Z,71.10
2023-12-23T02:15:10.201Z,71.20
2023-12-23T02:17:45.951Z,71.20
2023-12-23T02:20:21.258Z,71.10
2023-12-23T02:22:57.229Z,71.20
2023-12-23T02:25:31.148Z,71.40
2023-12-23T02:28:10.112Z,71.30
2023-12-23T02:30:50.505Z,71.40
2023-12-23T02:33:25.915Z,71.40
2023-12-23T02:36:00.776Z,71.60
2023-12-23T02:38:36.067Z,71.50
2023-12-23T02:41:10.546Z,71.70
2023-12-23T02:43:45.371Z,71.60
2023-12-23T02:46:19.814Z,71.80
2023-12-23T02:48:54.284Z,71.80
2023-12-23T02:51:28.408Z,71.70
2023-12-23T02:54:05.297Z,71.90
2023-12-23T02:56:39.575Z,72.00
2023-12-23T02:59:13.352Z,72.10
2023-12-23T03:01:47.631Z,72.10
2023-12-23T03:04:22.543Z,72.30
2023-12-23T03:06:56.430Z,72.30
2023-12-23T03:09:31.933Z,72.50
2023-12-23T03:12:06.605Z,72.40
2023-12-23T03:14:42.686Z,72.60
2023-12-23T03:17:18.102Z,72.60
2023-12-23T03:19:54.769Z,72.60
2023-12-23T03:22:29.278Z,72.70
2023-12-23T03:25:05.061Z,72.90
2023-12-23T03:27:39.046Z,72.90
2023-12-23T03:30:14.094Z,73.00
2023-12-23T03:32:50.548Z,73.20
2023-12-23T03:35:24.736Z,73.00
2023-12-23T03:37:58.721Z,73.30
2023-12-23T03:40:33.727Z,73.40
2023-12-23T03:43:07.538Z,73.50
2023-12-23T03:45:41.395Z,73.60
2023-12-23T03:48:15.412Z,73.70
2023-12-23T03:50:49.058Z,73.70
2023-12-23T03:53:23.340Z,73.80
2023-12-23T03:55:58.761Z,74.10
2023-12-23T03:58:32.531Z,74.10
2023-12-23T04:01:06.934Z,74.40
2023-12-23T04:03:41.009Z,74.10
2023-12-23T04:06:14.724Z,74.60
2023-12-23T04:08:48.737Z,74.70
2023-12-23T04:11:24.079Z,74.90
2023-12-23T04:13:57.749Z,75.00
2023-12-23T04:16:31.630Z,75.20
2023-12-23T04:19:06.157Z,75.40
2023-12-23T04:21:40.015Z,75.40
2023-12-23T04:24:13.987Z,75.60
2023-12-23T04:26:50.089Z,75.60
2023-12-23T04:29:23.533Z,75.80
2023-12-23T04:31:57.958Z,75.90
2023-12-23T04:34:31.932Z,75.90
2023-12-23T04:37:05.986Z,76.10
2023-12-23T04:39:40.365Z,76.20
2023-12-23T04:42:15.681Z,76.10
2023-12-23T04:44:49.169Z,76.20
2023-12-23T04:47:23.462Z,76.20
2023-12-23T04:49:57.528Z,76.00
2023-12-23T04:52:31.618Z,76.30
2023-12-23T04:55:10.959Z,76.50
2023-12-23T04:57:52.773Z,76.50
2023-12-23T05:00:26.887Z,76.40
2023-12-23T05:03:01.009Z,76.40
2023-12-23T05:05:34.956Z,76.30
2023-12-23T05:08:11.306Z,76.30
2023-12-23T05:10:46.048Z,76.30
2023-12-23T05:13:21.602Z,76.30
2023-12-23T05:15:55.988Z,76.20
2023-12-23T05:18:29.744Z,76.20
2023-12-23T05:21:04.608Z,76.20
2023-12-23T05:23:38.362Z,76.10
2023-12-23T05:26:12.765Z,76.00
2023-12-23T05:28:48.349Z,75.90
2023-12-23T05:31:23.317Z,75.90
2023-12-23T05:33:59.624Z,75.80
2023-12-23T05:36:35.534Z,75.90
2023-12-23T05:39:09.383Z,75.90
2023-12-23T05:41:45.291Z,75.70
2023-12-23T05:44:20.306Z,75.70
2023-12-23T05:46:54.163Z,75.70
2023-12-23T05:49:28.310Z,75.70
2023-12-23T05:52:02.223Z,75.60
2023-12-23T05:54:36.636Z,75.50
2023-12-23T05:57:12.328Z,75.40
2023-12-23T05:59:48.923Z,75.60
2023-12-23T06:02:23.732Z,75.60
2023-12-23T06:04:58.967Z,75.40
2023-12-23T06:07:35.646Z,75.40
2023-12-23T06:10:10.901Z,75.40
2023-12-23T06:12:44.471Z,75.50
2023-12-23T06:15:20.132Z,75.50
2023-12-23T06:17:55.967Z,75.50
2023-12-23T06:20:31.671Z,75.40
2023-12-23T06:23:06.791Z,75.60
2023-12-23T06:25:41.215Z,75.50
2023-12-23T06:28:16.164Z,75.40
2023-12-23T06:30:52.648Z,75.40
2023-12-23T06:33:26.545Z,75.50
2023-12-23T06:36:00.715Z,75.20
2023-12-23T06:38:34.776Z,75.30
2023-12-23T06:41:08.292Z,75.20
2023-12-23T06:43:46.857Z,75.30
2023-12-23T06:46:27.513Z,75.20
2023-12-23T06:49:01.513Z,75.20
2023-12-23T06:51:35.733Z,75.90
2023-12-23T06:54:10.245Z,75.20
2023-12-23T06:56:44.055Z,75.30
2023-12-23T06:59:19.576Z,75.30
2023-12-23T07:01:55.310Z,75.20
2023-12-23T07:04:30.041Z,75.20
2023-12-23T07:07:04.149Z,75.30
2023-12-23T07:09:37.741Z,76.00
2023-12-23T07:12:12.001Z,75.30
2023-12-23T07:14:46.060Z,75.30
2023-12-23T07:17:34.909Z,75.40
2023-12-23T07:20:18.045Z,75.30
2023-12-23T07:22:53.548Z,75.30
2023-12-23T07:25:27.369Z,75.30
2023-12-23T07:28:02.665Z,75.40
2023-12-23T07:30:41.708Z,75.40
2023-12-23T07:33:18.519Z,75.60
2023-12-23T07:35:53.872Z,75.40
2023-12-23T07:38:28.550Z,75.40
2023-12-23T07:41:02.226Z,75.40
2023-12-23T07:43:38.548Z,75.40
2023-12-23T07:46:13.628Z,75.60
2023-12-23T07:48:49.550Z,75.60
2023-12-23T07:51:23.353Z,75.50
2023-12-23T07:53:58.316Z,75.40
2023-12-23T07:56:32.235Z,75.50
2023-12-23T07:59:06.342Z,75.50
2023-12-23T08:01:46.967Z,75.50
2023-12-23T08:04:22.489Z,75.60
2023-12-23T08:06:56.070Z,75.60
2023-12-23T08:09:29.728Z,75.60
2023-12-23T08:12:03.701Z,75.60
2023-12-23T08:14:37.809Z,75.60
2023-12-23T08:17:13.076Z,75.70
2023-12-23T08:19:49.249Z,75.40
2023-12-23T08:22:22.972Z,75.80
2023-12-23T08:24:56.872Z,75.80
2023-12-23T08:27:31.426Z,75.80
2023-12-23T08:30:06.705Z,75.80
2023-12-23T08:32:40.613Z,75.90
2023-12-23T08:35:20.232Z,75.90
2023-12-23T08:37:54.415Z,75.90
2023-12-23T08:40:29.411Z,75.90
2023-12-23T08:43:04.718Z,76.00
2023-12-23T08:45:39.814Z,75.90
2023-12-23T08:48:13.951Z,75.90
2023-12-23T08:50:49.284Z,76.00
2023-12-23T08:53:47.986Z,75.80
2023-12-23T08:56:23.522Z,76.00
2023-12-23T08:58:57.926Z,75.70
2023-12-23T09:01:31.753Z,76.00
2023-12-23T09:04:06.886Z,75.90
2023-12-23T09:06:43.910Z,75.90
2023-12-23T09:09:21.189Z,76.10
2023-12-23T09:11:57.878Z,75.90
2023-12-23T09:14:32.450Z,75.90
2023-12-23T09:17:05.522Z,75.80
2023-12-23T09:19:40.456Z,75.80
2023-12-23T09:22:17.642Z,75.80
2023-12-23T09:24:51.906Z,75.70
2023-12-23T09:27:28.205Z,75.60
2023-12-23T09:30:02.686Z,75.70
2023-12-23T09:32:36.480Z,75.50
2023-12-23T09:35:11.469Z,75.60
2023-12-23T09:37:47.196Z,75.50
2023-12-23T09:40:21.505Z,75.30
2023-12-23T09:42:57.601Z,75.30
2023-12-23T09:45:33.506Z,75.20
2023-12-23T09:48:08.246Z,75.20
2023-12-23T09:50:42.422Z,75.10
2023-12-23T09:53:24.167Z,75.00
2023-12-23T09:55:59.277Z,75.00
2023-12-23T09:58:33.003Z,74.90
2023-12-23T10:01:07.236Z,74.80
2023-12-23T10:03:42.643Z,74.80
2023-12-23T10:06:20.098Z,74.20
2023-12-23T10:08:57.529Z,74.60
2023-12-23T10:11:32.106Z,74.50
2023-12-23T10:14:06.556Z,74.30
2023-12-23T10:16:44.611Z,74.20
2023-12-23T10:19:20.650Z,74.20
2023-12-23T10:21:56.285Z,75.00
2023-12-23T10:24:31.325Z,74.00
2023-12-23T10:27:07.965Z,73.40
2023-12-23T10:29:46.975Z,74.70
2023-12-23T10:32:28.063Z,74.00
2023-12-23T10:35:03.761Z,74.20
2023-12-23T10:37:43.276Z,73.90
2023-12-23T10:40:29.526Z,74.00
2023-12-23T10:43:06.157Z,74.00
2023-12-23T10:45:46.376Z,74.00
2023-12-23T10:48:21.479Z,74.00
2023-12-23T10:51:01.636Z,74.00
2023-12-23T10:53:36.794Z,74.00
2023-12-23T10:56:16.619Z,73.90
2023-12-23T10:58:50.996Z,74.10
2023-12-23T11:01:30.481Z,74.00
2023-12-23T11:04:05.632Z,74.10
2023-12-23T11:06:44.355Z,74.10
2023-12-23T11:09:19.576Z,74.20
2023-12-23T11:11:58.177Z,74.30
2023-12-23T11:14:35.000Z,74.40
2023-12-23T11:17:26.874Z,74.50
2023-12-23T11:20:03.646Z,74.60
2023-12-23T11:22:42.433Z,74.70
2023-12-23T11:25:38.997Z,74.70
2023-12-23T11:28:17.985Z,74.80
2023-12-23T11:30:57.670Z,74.90
2023-12-23T11:33:36.390Z,74.80
2023-12-23T11:36:11.538Z,74.90
2023-12-23T11:38:52.453Z,74.80
2023-12-23T11:41:29.098Z,75.00
2023-12-23T11:44:06.220Z,75.00
2023-12-23T11:46:43.485Z,75.20
2023-12-23T11:49:17.857Z,74.90
2023-12-23T11:51:53.592Z,75.00
2023-12-23T11:54:27.669Z,75.20
2023-12-23T11:57:02.267Z,75.10
2023-12-23T11:59:37.904Z,75.20
2023-12-23T12:02:11.995Z,75.20
2023-12-23T12:04:47.634Z,75.20
2023-12-23T12:07:23.614Z,75.30
2023-12-23T12:09:57.366Z,75.40
2023-12-23T12:12:31.676Z,75.40
2023-12-23T12:15:10.174Z,75.40
2023-12-23T12:17:43.954Z,75.50
2023-12-23T12:20:17.973Z,75.30
2023-12-23T12:22:52.430Z,75.40
2023-12-23T12:25:28.454Z,75.40
2023-12-23T12:28:04.206Z,75.30
2023-12-23T12:30:41.790Z,75.40
2023-12-23T12:33:17.386Z,75.20
2023-12-23T12:35:51.581Z,75.20
2023-12-23T12:38:25.641Z,74.90
2023-12-23T12:40:59.906Z,75.10
2023-12-23T12:43:35.983Z,75.10
2023-12-23T12:46:16.444Z,75.00
2023-12-23T12:48:52.372Z,75.00
2023-12-23T12:51:26.485Z,75.00
2023-12-23T12:54:00.989Z,74.90
2023-12-23T12:56:34.927Z,74.90
2023-12-23T12:59:09.310Z,74.90
2023-12-23T13:01:45.200Z,74.90
2023-12-23T13:04:19.260Z,74.80
2023-12-23T13:06:54.456Z,74.30
2023-12-23T13:09:29.308Z,74.80
2023-12-23T13:12:05.786Z,74.60
2023-12-23T13:14:41.025Z,74.80
2023-12-23T13:17:16.697Z,74.50
2023-12-23T13:19:51.514Z,74.60
2023-12-23T13:22:26.030Z,74.50
2023-12-23T13:25:01.119Z,74.50
2023-12-23T13:27:36.360Z,74.20
2023-12-23T13:30:11.866Z,74.20
2023-12-23T13:32:48.158Z,74.20
2023-12-23T13:35:23.317Z,74.10
2023-12-23T13:37:57.619Z,74.10
2023-12-23T13:40:32.402Z,73.90
2023-12-23T13:43:07.974Z,73.70
2023-12-23T13:45:45.949Z,74.30
2023-12-23T13:48:23.564Z,73.40
2023-12-23T13:50:58.108Z,73.30
2023-12-23T13:53:32.535Z,73.20
2023-12-23T13:56:09.836Z,73.10
2023-12-23T13:58:43.667Z,73.10
2023-12-23T14:01:20.589Z,72.80
2023-12-23T14:03:56.071Z,72.70
2023-12-23T14:06:29.754Z,72.70
2023-12-23T14:09:04.925Z,72.50
2023-12-23T14:11:38.930Z,72.50
2023-12-23T14:14:13.585Z,72.10
2023-12-23T14:16:47.792Z,72.10
2023-12-23T14:19:23.752Z,72.00
2023-12-23T14:21:59.498Z,71.80
2023-12-23T14:24:33.967Z,71.80
2023-12-23T14:27:12.556Z,71.70
2023-12-23T14:29:50.906Z,71.70
2023-12-23T14:32:25.046Z,71.60
2023-12-23T14:35:01.220Z,71.50
2023-12-23T14:37:42.272Z,71.30
2023-12-23T14:40:22.153Z,71.10
2023-12-23T14:42:56.120Z,71.20
2023-12-23T14:45:31.145Z,71.10
2023-12-23T14:48:06.859Z,71.00
2023-12-23T14:50:44.893Z,71.00
2023-12-23T14:53:19.637Z,70.80
2023-12-23T14:55:53.969Z,70.80
2023-12-23T14:58:31.053Z,70.80
2023-12-23T15:01:04.691Z,70.80
2023-12-23T15:03:40.162Z,70.50
2023-12-23T15:06:15.400Z,70.60
2023-12-23T15:08:49.192Z,70.40
2023-12-23T15:11:26.316Z,70.50
2023-12-23T15:13:59.987Z,70.40
2023-12-23T15:16:34.494Z,70.30
2023-12-23T15:19:09.115Z,70.20
2023-12-23T15:21:44.904Z,70.20
2023-12-23T15:24:18.796Z,70.90
2023-12-23T15:26:53.057Z,70.20
2023-12-23T15:29:27.488Z,70.30
2023-12-23T15:32:04.430Z,70.30
2023-12-23T15:34:37.867Z,70.10
2023-12-23T15:37:14.594Z,70.30
2023-12-23T15:39:48.683Z,70.20
2023-12-23T15:42:23.220Z,70.20
2023-12-23T15:44:57.024Z,70.20
2023-12-23T15:47:31.094Z,70.40
2023-12-23T15:50:07.685Z,70.20
2023-12-23T15:52:43.124Z,70.40
2023-12-23T15:55:18.293Z,70.30
2023-12-23T15:57:52.097Z,70.50
2023-12-23T16:00:28.907Z,70.40
2023-12-23T16:03:05.497Z,70.40
2023-12-23T16:05:39.481Z,70.40
2023-12-23T16:08:15.526Z,70.60
2023-12-23T16:10:51.019Z,70.50
2023-12-23T16:13:25.638Z,70.60
2023-12-23T16:15:59.411Z,70.80
2023-12-23T16:18:34.266Z,70.80
2023-12-23T16:21:08.322Z,70.80
2023-12-23T16:23:44.053Z,70.90
2023-12-23T16:26:22.164Z,71.00
2023-12-23T16:29:00.810Z,71.30
2023-12-23T16:31:34.951Z,71.40
2023-12-23T16:34:10.487Z,71.50
2023-12-23T16:36:44.908Z,71.60
2023-12-23T16:39:21.546Z,71.90
2023-12-23T16:41:58.758Z,72.00
2023-12-23T16:44:33.019Z,72.10
2023-12-23T16:47:07.820Z,71.90
2023-12-23T16:49:42.896Z,72.30
2023-12-23T16:52:16.746Z,72.30
2023-12-23T16:54:52.183Z,72.60
2023-12-23T16:57:26.969Z,72.80
2023-12-23T17:00:01.134Z,72.80
2023-12-23T17:02:35.465Z,73.60
2023-12-23T17:05:10.372Z,73.00
2023-12-23T17:07:44.171Z,72.90
2023-12-23T17:10:19.711Z,73.10
2023-12-23T17:12:55.321Z,73.20
2023-12-23T17:15:28.727Z,73.30
2023-12-23T17:18:05.703Z,73.30
2023-12-23T17:20:39.696Z,73.40
2023-12-23T17:23:13.527Z,73.40
2023-12-23T17:25:50.794Z,73.30
2023-12-23T17:28:24.680Z,73.40
2023-12-23T17:30:58.627Z,73.40
2023-12-23T17:33:32.985Z,73.50
2023-12-23T17:36:11.554Z,73.60
2023-12-23T17:38:45.851Z,73.80
2023-12-23T17:41:22.374Z,73.70
2023-12-23T17:43:57.216Z,73.90
2023-12-23T17:46:32.756Z,73.70
2023-12-23T17:49:07.917Z,74.00
2023-12-23T17:51:42.832Z,74.00
2023-12-23T17:54:18.061Z,73.90
2023-12-23T17:56:54.270Z,73.80
2023-12-23T17:59:29.527Z,74.00
2023-12-23T18:02:03.782Z,73.90
2023-12-23T18:04:43.110Z,74.00
2023-12-23T18:07:18.375Z,74.00
2023-12-23T18:09:54.822Z,74.00
2023-12-23T18:12:30.161Z,74.00
2023-12-23T18:15:03.895Z,74.00
2023-12-23T18:17:37.989Z,74.20
2023-12-23T18:20:13.153Z,74.10
2023-12-23T18:22:49.131Z,74.30
2023-12-23T18:25:23.520Z,74.20
2023-12-23T18:27:58.873Z,74.20
2023-12-23T18:30:33.098Z,74.10
2023-12-23T18:33:07.697Z,74.20
2023-12-23T18:35:45.485Z,74.20
2023-12-23T18:38:19.558Z,74.20
2023-12-23T18:40:55.272Z,74.10
2023-12-23T18:43:31.614Z,74.20
2023-12-23T18:46:05.910Z,74.30
2023-12-23T18:48:40.109Z,74.20
2023-12-23T18:51:16.180Z,74.10
2023-12-23T18:53:50.820Z,74.20
2023-12-23T18:56:24.937Z,74.20
2023-12-23T18:59:04.930Z,73.80
2023-12-23T19:01:38.440Z,74.00
2023-12-23T19:04:13.106Z,74.00
2023-12-23T19:06:48.946Z,74.10
2023-12-23T19:09:22.758Z,74.00
2023-12-23T19:11:56.913Z,74.00
2023-12-23T19:14:32.317Z,74.10
2023-12-23T19:17:06.261Z,74.00
2023-12-23T19:19:40.487Z,74.00
2023-12-23T19:22:15.978Z,74.00
2023-12-23T19:24:49.703Z,73.90
2023-12-23T19:27:26.058Z,74.00
2023-12-23T19:30:01.522Z,73.40
2023-12-23T19:32:37.689Z,73.90
2023-12-23T19:35:11.656Z,74.00
2023-12-23T19:37:45.698Z,73.80
2023-12-23T19:40:22.486Z,73.80
2023-12-23T19:42:56.934Z,73.80
2023-12-23T19:45:32.320Z,73.90
2023-12-23T19:48:07.920Z,73.80
2023-12-23T19:50:41.948Z,73.80
2023-12-23T19:53:16.162Z,73.80
2023-12-23T19:55:50.541Z,73.80
2023-12-23T19:58:25.749Z,73.60
2023-12-23T20:01:02.030Z,73.60
2023-12-23T20:03:41.456Z,73.60
2023-12-23T20:06:15.769Z,73.60
2023-12-23T20:08:49.918Z,73.50
2023-12-23T20:11:27.413Z,73.10
2023-12-23T20:14:02.863Z,73.40
2023-12-23T20:16:38.168Z,73.20
2023-12-23T20:19:14.192Z,73.10
2023-12-23T20:21:48.592Z,73.00
2023-12-23T20:24:23.300Z,73.10
2023-12-23T20:27:02.839Z,72.90
2023-12-23T20:29:38.297Z,73.00
2023-12-23T20:32:14.037Z,72.60
2023-12-23T20:34:47.810Z,72.70
2023-12-23T20:37:21.780Z,72.60
2023-12-23T20:39:55.853Z,72.20
2023-12-23T20:42:30.657Z,72.50
2023-12-23T20:45:04.877Z,72.40
2023-12-23T20:47:40.853Z,72.40
2023-12-23T20:50:15.957Z,72.30
2023-12-23T20:52:50.022Z,72.20
2023-12-23T20:55:24.235Z,72.10
2023-12-23T20:57:59.035Z,72.00
2023-12-23T21:00:33.693Z,71.80
2023-12-23T21:03:09.386Z,71.80
2023-12-23T21:05:45.307Z,71.60
2023-12-23T21:08:21.721Z,71.40
2023-12-23T21:10:55.861Z,71.20
2023-12-23T21:13:29.804Z,71.30
2023-12-23T21:16:04.866Z,71.30
2023-12-23T21:18:45.010Z,71.20
2023-12-23T21:21:20.186Z,71.10
2023-12-23T21:23:57.138Z,71.00
2023-12-23T21:26:31.212Z,71.00
2023-12-23T21:29:04.768Z,70.80
2023-12-23T21:31:38.655Z,70.80
2023-12-23T21:34:14.246Z,70.60
2023-12-23T21:36:47.816Z,70.70
2023-12-23T21:39:22.564Z,70.40
2023-12-23T21:41:56.664Z,70.20
2023-12-23T21:44:30.842Z,70.40
2023-12-23T21:47:05.642Z,70.30
2023-12-23T21:49:42.652Z,70.30
2023-12-23T21:52:16.879Z,70.10
2023-12-23T21:54:53.416Z,70.10
2023-12-23T21:57:27.637Z,70.10
2023-12-23T22:00:01.710Z,70.00
2023-12-23T22:02:36.893Z,70.10
2023-12-23T22:05:14.201Z,69.90
2023-12-23T22:07:48.008Z,70.00
2023-12-23T22:10:22.045Z,70.50
2023-12-23T22:12:55.614Z,69.80
2023-12-23T22:15:29.929Z,69.70
2023-12-23T22:18:05.136Z,69.80
2023-12-23T22:20:40.339Z,69.70
2023-12-23T22:23:14.422Z,69.50
2023-12-23T22:25:48.337Z,69.60
2023-12-23T22:28:22.795Z,69.50
2023-12-23T22:30:57.214Z,69.50
2023-12-23T22:33:31.445Z,69.40
2023-12-23T22:36:10.836Z,69.30
2023-12-23T22:38:45.671Z,70.10
2023-12-23T22:41:19.801Z,69.30
2023-12-23T22:43:54.738Z,69.80
2023-12-23T22:46:28.731Z,69.00
2023-12-23T22:49:02.819Z,68.90
2023-12-23T22:51:39.121Z,69.00
2023-12-23T22:54:13.073Z,68.90
2023-12-23T22:56:46.676Z,69.00
2023-12-23T22:59:23.211Z,68.90
2023-12-23T23:01:57.196Z,68.90
2023-12-23T23:04:31.784Z,69.00
2023-12-23T23:07:08.008Z,68.90
2023-12-23T23:09:42.992Z,68.80
2023-12-23T23:12:16.490Z,69.00
2023-12-23T23:14:53.276Z,68.80
2023-12-23T23:17:28.387Z,69.10
2023-12-23T23:20:02.868Z,69.00
2023-12-23T23:22:41.121Z,69.00
2023-12-23T23:25:15.331Z,68.90
2023-12-23T23:27:49.657Z,69.00
2023-12-23T23:30:23.496Z,69.10
2023-12-23T23:32:57.387Z,69.00
2023-12-23T23:35:31.341Z,69.10
2023-12-23T23:38:07.428Z,69.10
2023-12-23T23:40:41.349Z,69.10
2023-12-23T23:43:15.070Z,69.20
2023-12-23T23:45:49.017Z,69.20
2023-12-23T23:48:22.795Z,69.30
2023-12-23T23:50:56.647Z,69.20
2023-12-23T23:53:33.648Z,69.30
2023-12-23T23:56:10.684Z,69.30
2023-12-23T23:58:46.277Z,69.50
